Terminal Aerodrome Forecast
Issued by NWS

Home | Current Version | Previous Version | Text Only | Print | Product List | Glossary On
Versions: 1 2 3 4 5 6 7 8 9 10 11 12 13 14 15 16
000
FTUS42 KTAE 030524
TAFDHN
TAF
KDHN 030524Z 0306/0406 00000KT P6SM FEW040
     FM030900 00000KT 5SM BR SCT250
     FM031300 31003KT P6SM SCT250
     FM031800 26008KT P6SM SCT050 BKN250=

USA.gov is the U.S. government's official web portal to all federal, state and local government web resources and services.